OLM weather

Olympia Regional Airport
Olympia, Washington, United States

Public forecast

Using degrees Fahrenheit for public forecast. Weather courtesy of forecast.io.

Current aviation weather report (METAR) for Olympia Regional Airport

Retrieved 2019/10/19 14:54 UTC (55 minutes ago):

KOLM 191454Z AUTO 21007KT 10SM SCT038 BKN055 BKN090 08/07 A2967 RMK AO2 RAE42 SLP047 P0002 60022 T00780067 51020

Aviation forecast (TAF) for Olympia Regional Airport

Retrieved 2019/10/19 12:28 UTC (3 hours ago):

TAF KOLM 191126Z 1912/2012 18007KT 6SM -RA BR SCT008 OVC030 TEMPO 1912/1916 3SM RA BR BKN008 OVC020 FM191800 22012KT P6SM -SHRA BKN025 BKN050 FM192100 24012G20KT P6SM VCSH SCT025 BKN050 FM200300 22009KT P6SM SCT050 FM200900 21004KT P6SM BKN030